Time;durP1;ratioP1;P1;durP2;ratioP2;P2;SDS_P1;SDS_P2;PMS_P1;PMS_P2;Temp;Humidity;BMP_temperature;BMP_pressure;BME280_temperature;BME280_humidity;BME280_pressure;Samples;Min_cycle;Max_cycle;Signal;HPM_P1;HPM_P2
2022/06/08 00:00:25;;;;;;;13.50;9.25;;;;;;;;;;5040489;28;20745;-75
2022/06/08 00:03:11;;;;;;;10.95;8.93;;;;;;;;;;5038969;28;20277;-73
2022/06/08 00:05:36;;;;;;;11.25;8.65;;;;;;;;;;5047428;28;20213;-75
2022/06/08 00:08:02;;;;;;;14.02;9.18;;;;;;;;;;5043886;28;20742;-73
2022/06/08 00:10:28;;;;;;;16.00;10.07;;;;;;;;;;5037572;28;22136;-73
2022/06/08 00:12:53;;;;;;;12.95;9.82;;;;;;;;;;5029692;28;20201;-73
2022/06/08 00:15:19;;;;;;;18.95;12.07;;;;;;;;;;5043279;28;20289;-73
2022/06/08 00:17:44;;;;;;;18.52;11.23;;;;;;;;;;5025216;28;20194;-73
2022/06/08 00:20:10;;;;;;;23.73;14.35;;;;;;;;;;5017568;28;20189;-73
2022/06/08 00:22:36;;;;;;;18.52;14.15;;;;;;;;;;5025490;28;20185;-73
2022/06/08 00:25:02;;;;;;;23.40;14.35;;;;;;;;;;5025606;28;20210;-73
2022/06/08 00:27:27;;;;;;;21.63;15.30;;;;;;;;;;5041282;28;20234;-73
2022/06/08 00:29:52;;;;;;;27.25;15.13;;;;;;;;;;5037827;28;20561;-73
2022/06/08 00:32:18;;;;;;;21.70;15.45;;;;;;;;;;5051969;28;20185;-73
2022/06/08 00:34:43;;;;;;;20.48;15.90;;;;;;;;;;5036519;28;20185;-73
2022/06/08 00:37:08;;;;;;;24.67;17.52;;;;;;;;;;5036814;28;20664;-73
2022/06/08 00:39:34;;;;;;;22.75;15.82;;;;;;;;;;5043838;28;20173;-73
2022/06/08 00:42:00;;;;;;;22.17;16.70;;;;;;;;;;5046116;28;20713;-73
2022/06/08 00:44:27;;;;;;;23.83;15.90;;;;;;;;;;5051469;28;20577;-73
2022/06/08 00:46:53;;;;;;;20.85;16.80;;;;;;;;;;5047670;28;20180;-73
2022/06/08 00:49:21;;;;;;;26.75;17.48;;;;;;;;;;5032597;28;20445;-73
2022/06/08 00:51:46;;;;;;;23.63;17.20;;;;;;;;;;5039036;28;20239;-73
2022/06/08 00:54:15;;;;;;;26.30;15.93;;;;;;;;;;5048968;28;20181;-73
2022/06/08 00:56:43;;;;;;;27.30;17.58;;;;;;;;;;5051514;28;20687;-73
2022/06/08 00:59:09;;;;;;;27.05;17.73;;;;;;;;;;5045437;28;20178;-73
2022/06/08 01:01:35;;;;;;;22.75;16.73;;;;;;;;;;5042026;28;20244;-73
2022/06/08 01:04:08;;;;;;;26.98;17.60;;;;;;;;;;5046299;28;20182;-73
2022/06/08 01:06:33;;;;;;;28.80;18.00;;;;;;;;;;5039747;28;20226;-73
2022/06/08 01:08:59;;;;;;;23.48;17.77;;;;;;;;;;5038691;28;20217;-73
2022/06/08 01:11:24;;;;;;;24.10;18.05;;;;;;;;;;5042757;28;20194;-74
2022/06/08 01:13:50;;;;;;;25.20;16.23;;;;;;;;;;5047367;28;20178;-73
2022/06/08 01:16:15;;;;;;;25.50;17.75;;;;;;;;;;5048529;28;20504;-74
2022/06/08 01:18:41;;;;;;;24.50;18.10;;;;;;;;;;5048010;28;20588;-73
2022/06/08 01:21:22;;;;;;;24.20;18.98;;;;;;;;;;5045378;28;20269;-74
2022/06/08 01:23:48;;;;;;;24.52;17.65;;;;;;;;;;5049512;28;20192;-74
2022/06/08 01:26:18;;;;;;;26.95;17.35;;;;;;;;;;5049564;28;20274;-73
2022/06/08 01:28:49;;;;;;;28.92;20.02;;;;;;;;;;5049365;28;20188;-74
2022/06/08 01:31:21;;;;;;;25.23;19.17;;;;;;;;;;5046019;28;20189;-73
2022/06/08 01:34:05;;;;;;;25.90;19.38;;;;;;;;;;5041751;28;20613;-74
2022/06/08 01:36:40;;;;;;;24.50;19.58;;;;;;;;;;5043563;28;20643;-75
2022/06/08 01:39:05;;;;;;;26.52;18.52;;;;;;;;;;5037965;28;20173;-75
2022/06/08 01:41:41;;;;;;;27.88;18.88;;;;;;;;;;5050525;28;20273;-74
2022/06/08 01:44:39;;;;;;;28.17;20.70;;;;;;;;;;5051043;28;20193;-73
2022/06/08 01:47:07;;;;;;;27.75;20.83;;;;;;;;;;5037771;28;21030;-73
2022/06/08 01:49:32;;;;;;;29.83;21.48;;;;;;;;;;5037940;28;20185;-74
2022/06/08 01:52:00;;;;;;;30.00;22.03;;;;;;;;;;5048328;28;20182;-74
2022/06/08 01:54:42;;;;;;;28.75;20.67;;;;;;;;;;5037776;28;20427;-74
2022/06/08 01:57:26;;;;;;;31.40;22.45;;;;;;;;;;5039420;28;20196;-72
2022/06/08 02:00:01;;;;;;;29.95;21.45;;;;;;;;;;5043739;28;20181;-74
2022/06/08 02:02:39;;;;;;;32.35;23.13;;;;;;;;;;5047964;28;20203;-74
2022/06/08 02:05:04;;;;;;;32.67;23.10;;;;;;;;;;5037000;28;20272;-74
2022/06/08 02:07:34;;;;;;;30.47;21.87;;;;;;;;;;5043649;28;20260;-74
2022/06/08 02:09:59;;;;;;;31.98;21.85;;;;;;;;;;5040904;28;20423;-74
2022/06/08 02:12:26;;;;;;;34.47;23.10;;;;;;;;;;5036976;28;20561;-74
2022/06/08 02:15:04;;;;;;;32.75;22.85;;;;;;;;;;5042700;28;20879;-74
2022/06/08 02:17:33;;;;;;;33.38;23.55;;;;;;;;;;5039226;28;20293;-73
2022/06/08 02:20:04;;;;;;;33.13;23.73;;;;;;;;;;5040692;28;20174;-74
2022/06/08 02:22:38;;;;;;;34.83;23.45;;;;;;;;;;5042789;28;20181;-74
2022/06/08 02:25:12;;;;;;;34.85;24.13;;;;;;;;;;5046449;28;20771;-73
2022/06/08 02:27:42;;;;;;;36.08;23.67;;;;;;;;;;5047126;28;20176;-74
2022/06/08 02:30:07;;;;;;;33.58;23.52;;;;;;;;;;5045801;28;20170;-73
2022/06/08 02:35:21;;;;;;;36.78;22.70;;;;;;;;;;5049202;28;20258;-74
2022/06/08 02:37:49;;;;;;;32.92;23.23;;;;;;;;;;5041019;28;20182;-73
2022/06/08 02:40:17;;;;;;;32.75;22.77;;;;;;;;;;5040466;28;20185;-74
2022/06/08 02:42:49;;;;;;;32.47;23.20;;;;;;;;;;5050427;28;20177;-74
2022/06/08 02:45:17;;;;;;;32.67;20.90;;;;;;;;;;5041933;28;20213;-73
2022/06/08 02:47:43;;;;;;;35.45;23.92;;;;;;;;;;5044334;28;20181;-74
2022/06/08 02:50:14;;;;;;;31.45;21.77;;;;;;;;;;5042299;28;20195;-74
2022/06/08 02:52:41;;;;;;;32.72;22.05;;;;;;;;;;5036269;28;20258;-74
2022/06/08 02:55:13;;;;;;;34.15;22.75;;;;;;;;;;5042363;28;20207;-74
2022/06/08 02:57:42;;;;;;;29.35;21.58;;;;;;;;;;5046750;28;20174;-74
2022/06/08 03:00:19;;;;;;;32.50;22.25;;;;;;;;;;5048330;28;20177;-74
2022/06/08 03:02:46;;;;;;;34.60;22.73;;;;;;;;;;5046616;28;20203;-74
2022/06/08 03:05:21;;;;;;;37.22;22.90;;;;;;;;;;5040996;28;20216;-74
2022/06/08 03:07:51;;;;;;;32.72;20.88;;;;;;;;;;5047858;28;20187;-74
2022/06/08 03:10:18;;;;;;;31.15;21.45;;;;;;;;;;5046900;28;20608;-73
2022/06/08 03:12:54;;;;;;;35.22;22.17;;;;;;;;;;5046266;28;20276;-74
2022/06/08 03:15:22;;;;;;;32.30;22.52;;;;;;;;;;5048237;28;20197;-74
2022/06/08 03:17:49;;;;;;;34.45;22.80;;;;;;;;;;5047469;28;20186;-74
2022/06/08 03:20:15;;;;;;;38.83;23.35;;;;;;;;;;5048031;28;20239;-74
2022/06/08 03:22:40;;;;;;;34.45;22.83;;;;;;;;;;5044560;28;20182;-74
2022/06/08 03:25:06;;;;;;;32.90;22.80;;;;;;;;;;5049325;28;20251;-74
2022/06/08 03:27:31;;;;;;;31.15;22.58;;;;;;;;;;5033933;28;20182;-74
2022/06/08 03:29:56;;;;;;;33.75;23.25;;;;;;;;;;5036467;28;20264;-74
2022/06/08 03:32:21;;;;;;;27.92;20.55;;;;;;;;;;5034534;28;20648;-74
2022/06/08 03:34:47;;;;;;;31.95;22.00;;;;;;;;;;5040834;28;20217;-73
2022/06/08 03:37:12;;;;;;;29.80;21.50;;;;;;;;;;5045316;28;20675;-72
2022/06/08 03:39:37;;;;;;;28.73;20.58;;;;;;;;;;5034472;28;20195;-74
2022/06/08 03:42:03;;;;;;;32.20;22.27;;;;;;;;;;5040224;28;20182;-74
2022/06/08 03:44:28;;;;;;;32.47;21.75;;;;;;;;;;5048813;28;20188;-73
2022/06/08 03:46:55;;;;;;;31.30;22.50;;;;;;;;;;5046264;28;20181;-73
2022/06/08 03:49:22;;;;;;;31.13;20.98;;;;;;;;;;5042613;28;20177;-73
2022/06/08 03:51:47;;;;;;;32.47;21.27;;;;;;;;;;5035672;28;20205;-73
2022/06/08 03:54:16;;;;;;;29.35;21.98;;;;;;;;;;5037086;28;20220;-73
2022/06/08 03:56:42;;;;;;;34.78;23.05;;;;;;;;;;5046641;28;20595;-73
2022/06/08 03:59:08;;;;;;;29.50;20.95;;;;;;;;;;5042824;28;20312;-73
2022/06/08 04:01:33;;;;;;;27.85;20.73;;;;;;;;;;5040165;28;20177;-73
2022/06/08 04:03:58;;;;;;;28.75;20.50;;;;;;;;;;5042223;28;21016;-73
2022/06/08 04:06:23;;;;;;;26.63;19.70;;;;;;;;;;5048772;28;20347;-73
2022/06/08 04:08:49;;;;;;;25.17;18.88;;;;;;;;;;5046472;28;20264;-73
2022/06/08 04:11:15;;;;;;;24.67;18.73;;;;;;;;;;5034150;28;20186;-73
2022/06/08 04:13:40;;;;;;;24.45;18.90;;;;;;;;;;5044580;28;20216;-73
2022/06/08 04:16:05;;;;;;;21.33;17.88;;;;;;;;;;5041485;28;20271;-74
2022/06/08 04:18:31;;;;;;;21.95;17.60;;;;;;;;;;5047013;28;20596;-73
2022/06/08 04:20:57;;;;;;;21.10;17.90;;;;;;;;;;5052857;28;20178;-74
2022/06/08 04:23:23;;;;;;;21.95;18.63;;;;;;;;;;5049859;28;20185;-74
2022/06/08 04:25:48;;;;;;;21.45;17.20;;;;;;;;;;5033482;28;20214;-74
2022/06/08 04:28:14;;;;;;;19.98;16.75;;;;;;;;;;5037031;28;20188;-73
2022/06/08 04:30:40;;;;;;;22.83;18.65;;;;;;;;;;5048943;28;20192;-73
2022/06/08 04:33:05;;;;;;;21.00;16.52;;;;;;;;;;5049957;28;20227;-73
2022/06/08 04:35:32;;;;;;;23.77;17.35;;;;;;;;;;5050602;28;20193;-73
2022/06/08 04:37:57;;;;;;;20.83;17.58;;;;;;;;;;5049311;28;20555;-73
2022/06/08 04:40:23;;;;;;;21.17;16.58;;;;;;;;;;5049103;28;20224;-73
2022/06/08 04:42:48;;;;;;;19.95;16.67;;;;;;;;;;5048574;28;20174;-73
2022/06/08 04:45:14;;;;;;;20.30;16.38;;;;;;;;;;5042534;28;20256;-73
2022/06/08 04:47:39;;;;;;;16.20;13.95;;;;;;;;;;5036562;28;20193;-73
2022/06/08 04:50:05;;;;;;;20.65;15.60;;;;;;;;;;5042381;28;20694;-73
2022/06/08 04:52:31;;;;;;;18.30;14.80;;;;;;;;;;5050649;28;20247;-73
2022/06/08 04:54:56;;;;;;;16.98;14.68;;;;;;;;;;5046116;28;20198;-73
2022/06/08 04:57:21;;;;;;;20.05;14.98;;;;;;;;;;5045388;28;20601;-73
2022/06/08 04:59:46;;;;;;;18.52;15.05;;;;;;;;;;5052996;28;20177;-73
2022/06/08 05:02:12;;;;;;;16.10;14.23;;;;;;;;;;5050449;28;20685;-73
2022/06/08 05:04:37;;;;;;;16.88;14.52;;;;;;;;;;5043829;28;20180;-73
2022/06/08 05:07:02;;;;;;;16.95;13.50;;;;;;;;;;5045469;28;20174;-73
2022/06/08 05:09:28;;;;;;;15.98;13.90;;;;;;;;;;5040251;28;20664;-73
2022/06/08 05:11:53;;;;;;;16.95;14.77;;;;;;;;;;5047331;28;20265;-73
2022/06/08 05:14:18;;;;;;;19.00;13.95;;;;;;;;;;5050035;28;20190;-74
2022/06/08 05:16:44;;;;;;;17.88;14.20;;;;;;;;;;5048324;28;20201;-72
2022/06/08 05:19:09;;;;;;;14.10;12.43;;;;;;;;;;5043037;28;20201;-74
2022/06/08 05:21:34;;;;;;;14.07;12.50;;;;;;;;;;5046418;28;20188;-72
2022/06/08 05:24:00;;;;;;;15.25;12.70;;;;;;;;;;5040476;28;20190;-72
2022/06/08 05:26:25;;;;;;;13.27;11.45;;;;;;;;;;5043735;28;20312;-73
2022/06/08 05:28:50;;;;;;;18.13;12.30;;;;;;;;;;5043468;28;20536;-73
2022/06/08 05:31:16;;;;;;;15.77;11.85;;;;;;;;;;5037627;28;20187;-73
2022/06/08 05:33:41;;;;;;;12.45;10.63;;;;;;;;;;5051675;28;20181;-73
2022/06/08 05:36:06;;;;;;;14.95;11.95;;;;;;;;;;5049817;28;20231;-73
2022/06/08 05:38:31;;;;;;;11.98;10.50;;;;;;;;;;5045602;28;20251;-73
2022/06/08 05:40:57;;;;;;;11.57;10.23;;;;;;;;;;5046791;28;20261;-73
2022/06/08 05:43:22;;;;;;;13.55;10.75;;;;;;;;;;5049216;28;20682;-73
2022/06/08 05:45:47;;;;;;;13.40;9.80;;;;;;;;;;5048630;28;20201;-73
2022/06/08 05:48:13;;;;;;;10.73;9.63;;;;;;;;;;5037099;28;20231;-73
2022/06/08 05:50:39;;;;;;;33.22;10.95;;;;;;;;;;5043861;28;20182;-73
2022/06/08 05:53:05;;;;;;;11.98;9.52;;;;;;;;;;5045578;28;20170;-73
2022/06/08 05:55:30;;;;;;;10.75;9.07;;;;;;;;;;5051028;28;20193;-72
2022/06/08 05:57:56;;;;;;;9.88;8.82;;;;;;;;;;5046410;28;20169;-72
2022/06/08 06:00:26;;;;;;;11.80;10.23;;;;;;;;;;5041044;28;20272;-72
2022/06/08 06:02:51;;;;;;;10.65;9.55;;;;;;;;;;5046192;28;20180;-72
2022/06/08 06:05:17;;;;;;;12.45;9.82;;;;;;;;;;5043299;28;20205;-72
2022/06/08 06:07:43;;;;;;;10.30;9.15;;;;;;;;;;5038899;28;20498;-72
2022/06/08 06:10:08;;;;;;;9.93;8.93;;;;;;;;;;5049621;28;20725;-73
2022/06/08 06:12:34;;;;;;;10.68;8.63;;;;;;;;;;5046665;28;20193;-72
2022/06/08 06:15:00;;;;;;;10.00;8.27;;;;;;;;;;5043872;28;20208;-72
2022/06/08 06:17:26;;;;;;;9.38;8.48;;;;;;;;;;5046316;28;20188;-72
2022/06/08 06:19:51;;;;;;;10.95;8.57;;;;;;;;;;5048796;28;20628;-72
2022/06/08 06:22:16;;;;;;;10.23;9.23;;;;;;;;;;5040955;28;20179;-72
2022/06/08 06:24:41;;;;;;;8.68;7.82;;;;;;;;;;5049335;28;20181;-72
2022/06/08 06:27:07;;;;;;;9.80;8.77;;;;;;;;;;5042710;28;20178;-72
2022/06/08 06:29:32;;;;;;;9.82;8.93;;;;;;;;;;5046210;28;20639;-72
2022/06/08 06:31:58;;;;;;;10.40;9.30;;;;;;;;;;5041505;28;20620;-72
2022/06/08 06:34:24;;;;;;;10.63;9.27;;;;;;;;;;5051804;28;20224;-72
2022/06/08 06:36:52;;;;;;;9.98;8.68;;;;;;;;;;5041635;28;20678;-72
2022/06/08 06:39:17;;;;;;;10.85;8.63;;;;;;;;;;5048781;28;20182;-72
2022/06/08 06:41:43;;;;;;;10.05;8.45;;;;;;;;;;5040860;28;20475;-73
2022/06/08 06:44:08;;;;;;;10.13;8.75;;;;;;;;;;5049913;28;20623;-72
2022/06/08 06:46:34;;;;;;;8.88;8.02;;;;;;;;;;5039128;28;20796;-72
2022/06/08 06:48:59;;;;;;;9.13;7.72;;;;;;;;;;5032033;28;20303;-72
2022/06/08 06:51:24;;;;;;;8.55;7.65;;;;;;;;;;5043024;28;20177;-72
2022/06/08 06:53:49;;;;;;;8.98;7.80;;;;;;;;;;5046264;28;20173;-72
2022/06/08 06:56:15;;;;;;;9.82;7.53;;;;;;;;;;5045214;28;20698;-72
2022/06/08 06:58:40;;;;;;;8.52;7.60;;;;;;;;;;5044398;28;20181;-72
2022/06/08 07:01:05;;;;;;;8.82;7.30;;;;;;;;;;5033693;28;20177;-72
2022/06/08 07:03:31;;;;;;;8.18;7.32;;;;;;;;;;5042754;28;20194;-72
2022/06/08 07:05:57;;;;;;;7.70;6.85;;;;;;;;;;5035644;28;20209;-72
2022/06/08 07:08:22;;;;;;;9.95;7.65;;;;;;;;;;5034583;28;20188;-72
2022/06/08 07:11:32;;;;;;;7.70;6.75;;;;;;;;;;5036111;28;20208;-72
2022/06/08 07:13:33;;;;;;;8.95;6.47;;;;;;;;;;5030195;28;20285;-73
2022/06/08 07:15:58;;;;;;;9.32;6.50;;;;;;;;;;5035749;28;20288;-73
2022/06/08 07:18:23;;;;;;;8.60;6.10;;;;;;;;;;5035036;28;20259;-73
2022/06/08 07:20:48;;;;;;;7.07;6.38;;;;;;;;;;5038420;28;20223;-71
2022/06/08 07:23:14;;;;;;;6.80;6.10;;;;;;;;;;5034707;28;20206;-71
2022/06/08 07:25:39;;;;;;;6.50;5.63;;;;;;;;;;5037595;28;21088;-71
2022/06/08 07:28:05;;;;;;;6.38;5.43;;;;;;;;;;5037456;28;20182;-71
2022/06/08 07:30:30;;;;;;;6.60;5.85;;;;;;;;;;5036150;28;20174;-71
2022/06/08 07:32:55;;;;;;;6.47;5.88;;;;;;;;;;5039949;28;20177;-71
2022/06/08 07:35:21;;;;;;;6.50;5.90;;;;;;;;;;5039937;28;20198;-72
2022/06/08 07:37:46;;;;;;;7.68;6.53;;;;;;;;;;5051398;28;20523;-72
2022/06/08 07:40:11;;;;;;;7.30;6.43;;;;;;;;;;5040442;28;20205;-72
2022/06/08 07:42:39;;;;;;;7.93;6.10;;;;;;;;;;5041489;28;20549;-72
2022/06/08 07:45:06;;;;;;;6.95;5.93;;;;;;;;;;5040892;28;20205;-72
2022/06/08 07:47:31;;;;;;;10.48;5.97;;;;;;;;;;5039016;28;20181;-72
2022/06/08 07:49:56;;;;;;;6.73;5.73;;;;;;;;;;5043216;28;20178;-72
2022/06/08 07:52:22;;;;;;;6.05;5.45;;;;;;;;;;5039148;28;20411;-72
2022/06/08 07:54:48;;;;;;;6.10;4.97;;;;;;;;;;5038297;28;20178;-73
2022/06/08 07:57:15;;;;;;;8.38;5.10;;;;;;;;;;5046590;28;20169;-72
2022/06/08 07:59:40;;;;;;;5.38;4.43;;;;;;;;;;5042938;28;20178;-72
2022/06/08 08:02:07;;;;;;;4.65;4.20;;;;;;;;;;5044241;28;20574;-72
2022/06/08 08:04:32;;;;;;;6.97;4.30;;;;;;;;;;5028005;28;20268;-73
2022/06/08 08:06:58;;;;;;;4.28;3.88;;;;;;;;;;5024831;28;20593;-72
2022/06/08 08:09:23;;;;;;;5.47;4.20;;;;;;;;;;5023175;28;20276;-72
2022/06/08 08:11:50;;;;;;;7.90;4.80;;;;;;;;;;5026746;28;20955;-72
2022/06/08 08:14:16;;;;;;;5.93;4.20;;;;;;;;;;5024102;28;20274;-72
2022/06/08 08:16:43;;;;;;;7.40;4.25;;;;;;;;;;5025533;28;20214;-72
2022/06/08 08:19:08;;;;;;;5.38;4.18;;;;;;;;;;5024854;28;20423;-72
2022/06/08 08:21:33;;;;;;;4.68;3.67;;;;;;;;;;5025846;28;20644;-72
2022/06/08 08:23:59;;;;;;;4.10;3.15;;;;;;;;;;5025048;28;20749;-72
2022/06/08 08:26:26;;;;;;;4.40;3.88;;;;;;;;;;5025506;28;20244;-72
2022/06/08 08:28:51;;;;;;;5.28;4.15;;;;;;;;;;5024516;28;20708;-72
2022/06/08 08:31:16;;;;;;;5.17;3.87;;;;;;;;;;5022777;28;20505;-72
2022/06/08 08:33:42;;;;;;;4.37;3.40;;;;;;;;;;5025875;28;20431;-72
2022/06/08 08:36:07;;;;;;;5.15;3.90;;;;;;;;;;5024866;28;20443;-72
2022/06/08 08:38:32;;;;;;;5.60;4.10;;;;;;;;;;5024674;28;20178;-72
2022/06/08 08:40:59;;;;;;;7.95;4.15;;;;;;;;;;5029445;28;20252;-72
2022/06/08 08:43:27;;;;;;;8.45;4.40;;;;;;;;;;5022162;28;20208;-73
2022/06/08 08:46:05;;;;;;;6.10;4.35;;;;;;;;;;5028030;28;20268;-73
2022/06/08 08:48:37;;;;;;;6.82;4.38;;;;;;;;;;5022974;28;20639;-72
2022/06/08 08:51:22;;;;;;;5.18;4.40;;;;;;;;;;5027346;28;20713;-72
2022/06/08 08:53:54;;;;;;;5.90;4.90;;;;;;;;;;5021788;28;20196;-72
2022/06/08 08:56:24;;;;;;;6.43;5.88;;;;;;;;;;5023603;28;20206;-73
2022/06/08 08:58:49;;;;;;;7.63;5.88;;;;;;;;;;5023065;28;20188;-73
2022/06/08 09:01:27;;;;;;;7.47;6.78;;;;;;;;;;5025648;28;21621;-73
2022/06/08 09:04:11;;;;;;;7.22;6.53;;;;;;;;;;5026229;28;20920;-73
2022/06/08 09:06:36;;;;;;;7.05;6.35;;;;;;;;;;5021940;28;20598;-72
2022/06/08 09:09:05;;;;;;;6.85;6.15;;;;;;;;;;5022467;28;20668;-72
2022/06/08 09:11:35;;;;;;;8.35;6.05;;;;;;;;;;5023637;28;20463;-73
2022/06/08 09:14:06;;;;;;;8.70;5.60;;;;;;;;;;5028667;28;20189;-73
2022/06/08 09:16:39;;;;;;;8.05;5.35;;;;;;;;;;5026833;28;20737;-72
2022/06/08 09:19:23;;;;;;;7.72;5.35;;;;;;;;;;5025572;28;20189;-72
2022/06/08 09:21:49;;;;;;;9.73;5.47;;;;;;;;;;5024682;28;20189;-71
2022/06/08 09:24:21;;;;;;;5.75;5.20;;;;;;;;;;5023037;28;20189;-72
2022/06/08 09:26:47;;;;;;;10.90;6.00;;;;;;;;;;5021848;28;20224;-72
2022/06/08 09:29:21;;;;;;;6.65;5.18;;;;;;;;;;5021760;28;20224;-73
2022/06/08 09:31:47;;;;;;;8.45;6.07;;;;;;;;;;5023722;28;21739;-73
2022/06/08 09:34:20;;;;;;;8.93;6.47;;;;;;;;;;5028599;28;20193;-73
2022/06/08 09:36:46;;;;;;;7.55;6.88;;;;;;;;;;5023979;28;20627;-73
2022/06/08 09:39:17;;;;;;;8.18;7.35;;;;;;;;;;5022704;28;20190;-73
2022/06/08 09:41:47;;;;;;;10.30;7.38;;;;;;;;;;5026791;28;20557;-73
2022/06/08 09:44:18;;;;;;;7.82;6.80;;;;;;;;;;5046537;28;20181;-72
2022/06/08 09:52:28;;;;;;;4.95;3.42;;;;;;;;;;5038562;28;20181;-73
2022/06/08 09:55:03;;;;;;;6.75;3.17;;;;;;;;;;5035600;28;20193;-73
2022/06/08 09:57:47;;;;;;;4.65;2.60;;;;;;;;;;5037420;28;20576;-72
2022/06/08 10:00:30;;;;;;;8.85;2.78;;;;;;;;;;5038511;28;20647;-73
2022/06/08 10:03:14;;;;;;;5.00;2.15;;;;;;;;;;5040319;28;20657;-72
2022/06/08 10:05:58;;;;;;;3.55;1.60;;;;;;;;;;5037894;28;20699;-73
2022/06/08 10:08:26;;;;;;;2.63;1.05;;;;;;;;;;5051352;28;20181;-73
2022/06/08 10:11:33;;;;;;;5.93;1.50;;;;;;;;;;5040343;28;20739;-73
2022/06/08 10:13:50;;;;;;;5.72;1.23;;;;;;;;;;5036854;28;20193;-73
2022/06/08 10:16:18;;;;;;;10.57;2.80;;;;;;;;;;5034173;28;20198;-73
2022/06/08 10:18:46;;;;;;;5.63;1.60;;;;;;;;;;5026363;28;20190;-74
2022/06/08 10:21:14;;;;;;;4.95;1.77;;;;;;;;;;5021271;28;20192;-73
2022/06/08 10:23:44;;;;;;;5.20;1.52;;;;;;;;;;5020904;28;20177;-73
2022/06/08 10:26:18;;;;;;;2.90;1.42;;;;;;;;;;5022592;28;20209;-74
2022/06/08 10:28:54;;;;;;;5.15;1.75;;;;;;;;;;5018118;28;20178;-73
2022/06/08 10:31:21;;;;;;;9.52;3.92;;;;;;;;;;5022405;28;20185;-74
2022/06/08 10:33:49;;;;;;;3.67;2.35;;;;;;;;;;5021762;28;20310;-74
2022/06/08 10:36:17;;;;;;;2.88;1.30;;;;;;;;;;5026150;28;20198;-73
2022/06/08 10:38:42;;;;;;;4.07;1.50;;;;;;;;;;5021947;28;20189;-74
2022/06/08 10:44:30;;;;;;;4.35;1.42;;;;;;;;;;5023447;28;20268;-73
2022/06/08 10:47:06;;;;;;;5.70;1.20;;;;;;;;;;5024753;28;20202;-74
2022/06/08 10:49:31;;;;;;;4.97;1.30;;;;;;;;;;5023557;28;20181;-73
2022/06/08 10:52:15;;;;;;;4.90;1.73;;;;;;;;;;5024498;28;20186;-73
2022/06/08 10:54:54;;;;;;;5.63;1.67;;;;;;;;;;5022197;28;20442;-73
2022/06/08 10:57:31;;;;;;;4.93;1.73;;;;;;;;;;5024349;28;20658;-74
2022/06/08 11:00:15;;;;;;;4.22;1.65;;;;;;;;;;5022589;28;20235;-74
2022/06/08 11:02:43;;;;;;;4.18;2.05;;;;;;;;;;5022696;28;20799;-74
2022/06/08 11:05:09;;;;;;;4.45;2.10;;;;;;;;;;5022630;28;20217;-74
2022/06/08 11:07:53;;;;;;;4.60;2.47;;;;;;;;;;5026435;28;20173;-75
2022/06/08 11:10:38;;;;;;;5.60;1.80;;;;;;;;;;5032648;28;20185;-75
2022/06/08 11:13:19;;;;;;;6.20;2.15;;;;;;;;;;5028135;28;20252;-75
2022/06/08 11:15:47;;;;;;;9.00;2.80;;;;;;;;;;5032480;28;20201;-75
2022/06/08 11:18:15;;;;;;;4.43;2.10;;;;;;;;;;5024946;28;20194;-75
2022/06/08 11:20:47;;;;;;;3.72;2.10;;;;;;;;;;5027129;28;20269;-75
2022/06/08 11:23:15;;;;;;;7.00;2.85;;;;;;;;;;5023869;28;20248;-75
2022/06/08 11:25:49;;;;;;;7.15;3.47;;;;;;;;;;5024739;28;20238;-74
2022/06/08 11:28:26;;;;;;;3.53;2.35;;;;;;;;;;5024364;28;20182;-75
2022/06/08 11:30:52;;;;;;;6.63;2.65;;;;;;;;;;5024369;28;20181;-74
2022/06/08 11:33:18;;;;;;;11.07;2.60;;;;;;;;;;5025167;28;20243;-74
2022/06/08 11:35:46;;;;;;;6.05;3.30;;;;;;;;;;5028464;28;20201;-74
2022/06/08 11:38:30;;;;;;;6.15;3.10;;;;;;;;;;5021173;28;20205;-74
2022/06/08 11:41:15;;;;;;;7.90;3.38;;;;;;;;;;5029258;28;20561;-74
2022/06/08 11:43:41;;;;;;;7.93;4.70;;;;;;;;;;5025472;28;20186;-74
2022/06/08 11:46:06;;;;;;;7.95;3.38;;;;;;;;;;5024317;28;20711;-74
2022/06/08 11:48:47;;;;;;;4.40;3.30;;;;;;;;;;5022707;28;20185;-75
2022/06/08 11:51:27;;;;;;;9.65;3.22;;;;;;;;;;5027905;28;20674;-74
2022/06/08 11:53:52;;;;;;;5.95;3.80;;;;;;;;;;5028639;28;20181;-74
2022/06/08 11:56:24;;;;;;;7.65;3.55;;;;;;;;;;5026008;28;20198;-75
2022/06/08 11:59:12;;;;;;;9.13;3.40;;;;;;;;;;5024842;28;21571;-75
2022/06/08 12:01:42;;;;;;;10.43;4.18;;;;;;;;;;5026019;28;20213;-75
2022/06/08 12:04:11;;;;;;;6.35;3.45;;;;;;;;;;5028282;28;20181;-76
2022/06/08 12:06:38;;;;;;;5.72;3.00;;;;;;;;;;5029464;28;20217;-76
2022/06/08 12:09:03;;;;;;;6.90;4.05;;;;;;;;;;5023122;28;20558;-76
2022/06/08 12:11:29;;;;;;;9.33;4.63;;;;;;;;;;5030919;28;20198;-75
2022/06/08 12:13:56;;;;;;;13.18;5.05;;;;;;;;;;5024263;28;20422;-75
2022/06/08 12:16:25;;;;;;;8.93;4.35;;;;;;;;;;5025979;28;20222;-76
2022/06/08 12:18:55;;;;;;;7.25;4.00;;;;;;;;;;5025484;28;20182;-76
2022/06/08 12:21:25;;;;;;;7.15;3.75;;;;;;;;;;5022746;28;20777;-76
2022/06/08 12:24:00;;;;;;;5.68;3.22;;;;;;;;;;5024561;28;20206;-76
2022/06/08 12:26:27;;;;;;;7.22;4.18;;;;;;;;;;5030362;28;20210;-76
2022/06/08 12:29:10;;;;;;;6.53;3.72;;;;;;;;;;5025200;28;20193;-76
2022/06/08 12:31:35;;;;;;;5.50;4.03;;;;;;;;;;5027352;28;20169;-76
2022/06/08 12:34:23;;;;;;;7.20;5.03;;;;;;;;;;5021579;28;20185;-76
2022/06/08 12:36:48;;;;;;;6.05;3.90;;;;;;;;;;5031685;28;20217;-76
2022/06/08 12:39:15;;;;;;;6.72;3.75;;;;;;;;;;5041314;28;20712;-76
2022/06/08 12:41:40;;;;;;;6.70;3.35;;;;;;;;;;5029881;28;21309;-76
2022/06/08 12:44:07;;;;;;;6.97;3.67;;;;;;;;;;5024974;28;20198;-76
2022/06/08 12:46:34;;;;;;;7.18;3.65;;;;;;;;;;5026708;28;20300;-77
2022/06/08 12:49:04;;;;;;;5.28;3.90;;;;;;;;;;5024500;28;20204;-77
2022/06/08 12:51:29;;;;;;;6.85;3.40;;;;;;;;;;5025766;28;20178;-77
2022/06/08 12:53:55;;;;;;;4.82;3.10;;;;;;;;;;5028027;28;20178;-77
2022/06/08 12:56:22;;;;;;;5.50;3.80;;;;;;;;;;5022424;28;20193;-77
2022/06/08 12:58:47;;;;;;;4.78;3.10;;;;;;;;;;5023017;28;20316;-77
2022/06/08 13:01:13;;;;;;;7.85;3.45;;;;;;;;;;5027886;28;20191;-77
2022/06/08 13:03:40;;;;;;;5.25;3.42;;;;;;;;;;5023559;28;20605;-76
2022/06/08 13:06:06;;;;;;;6.80;4.25;;;;;;;;;;5025074;28;20201;-77
2022/06/08 13:08:32;;;;;;;5.85;4.03;;;;;;;;;;5024364;28;20262;-77
2022/06/08 13:11:04;;;;;;;5.13;3.55;;;;;;;;;;5028497;28;20190;-76
2022/06/08 13:13:31;;;;;;;4.82;3.47;;;;;;;;;;5025034;28;20174;-77
2022/06/08 13:15:58;;;;;;;3.28;2.53;;;;;;;;;;5028876;28;20552;-77
2022/06/08 13:18:25;;;;;;;4.95;3.17;;;;;;;;;;5021375;28;20312;-76
2022/06/08 13:20:51;;;;;;;7.00;2.90;;;;;;;;;;5021918;28;20205;-77
2022/06/08 13:23:16;;;;;;;3.03;2.35;;;;;;;;;;5028886;28;20194;-76
2022/06/08 13:25:43;;;;;;;5.80;2.53;;;;;;;;;;5034081;28;20224;-76
2022/06/08 13:28:13;;;;;;;2.63;2.05;;;;;;;;;;5033952;28;20278;-75
2022/06/08 13:30:38;;;;;;;2.67;2.10;;;;;;;;;;5024148;28;20182;-75
2022/06/08 13:33:03;;;;;;;3.25;2.35;;;;;;;;;;5024040;28;20200;-76
2022/06/08 13:35:30;;;;;;;3.63;2.40;;;;;;;;;;5025019;28;20209;-76
2022/06/08 13:37:55;;;;;;;2.60;2.08;;;;;;;;;;5022703;28;20313;-76
2022/06/08 13:40:21;;;;;;;4.63;2.63;;;;;;;;;;5024705;28;20236;-76
2022/06/08 13:42:47;;;;;;;3.00;2.70;;;;;;;;;;5024450;28;21143;-76
2022/06/08 13:45:21;;;;;;;3.05;2.70;;;;;;;;;;5026742;28;20219;-77
2022/06/08 13:47:50;;;;;;;3.58;2.55;;;;;;;;;;5022572;28;20200;-76
2022/06/08 13:50:26;;;;;;;3.65;2.65;;;;;;;;;;5021926;28;20186;-76
2022/06/08 13:52:53;;;;;;;3.72;3.05;;;;;;;;;;5023923;28;20181;-76
2022/06/08 13:55:30;;;;;;;3.63;3.30;;;;;;;;;;5024625;28;20209;-76
2022/06/08 13:57:57;;;;;;;3.85;3.35;;;;;;;;;;5021186;28;20209;-77
2022/06/08 14:00:24;;;;;;;4.90;3.30;;;;;;;;;;5023993;28;20511;-77
2022/06/08 14:02:51;;;;;;;3.35;3.05;;;;;;;;;;5022643;28;20192;-76
2022/06/08 14:05:19;;;;;;;3.78;3.47;;;;;;;;;;5022738;28;20210;-77
2022/06/08 14:13:19;;;;;;;4.38;3.60;;;;;;;;;;5025677;28;20190;-77
2022/06/08 14:15:45;;;;;;;4.13;3.72;;;;;;;;;;5025050;28;20206;-77
2022/06/08 14:18:19;;;;;;;4.50;4.10;;;;;;;;;;5021656;28;20704;-77
2022/06/08 14:20:45;;;;;;;4.97;3.85;;;;;;;;;;5024094;28;20255;-77
2022/06/08 14:23:12;;;;;;;5.00;3.92;;;;;;;;;;5027426;28;20930;-76
2022/06/08 14:25:37;;;;;;;4.43;4.03;;;;;;;;;;5022823;28;20255;-77
2022/06/08 14:28:03;;;;;;;6.32;4.25;;;;;;;;;;5021669;28;20174;-76
2022/06/08 14:30:28;;;;;;;4.10;3.80;;;;;;;;;;5020690;28;20193;-77
2022/06/08 14:32:58;;;;;;;4.50;4.10;;;;;;;;;;5025415;28;20203;-77
2022/06/08 14:35:31;;;;;;;6.18;4.55;;;;;;;;;;5022761;28;20297;-77
2022/06/08 14:37:57;;;;;;;4.75;4.30;;;;;;;;;;5024772;28;20181;-76
2022/06/08 14:40:24;;;;;;;5.57;5.07;;;;;;;;;;5024372;28;20613;-77
2022/06/08 14:42:49;;;;;;;5.85;5.25;;;;;;;;;;5022539;28;20288;-77
2022/06/08 14:45:15;;;;;;;7.75;4.90;;;;;;;;;;5023697;28;20234;-77
2022/06/08 14:47:40;;;;;;;6.00;5.40;;;;;;;;;;5023913;28;20235;-76
2022/06/08 14:50:08;;;;;;;6.15;5.55;;;;;;;;;;5023073;28;20186;-76
2022/06/08 14:52:33;;;;;;;6.55;5.85;;;;;;;;;;5022895;28;20733;-76
2022/06/08 14:54:59;;;;;;;6.45;5.85;;;;;;;;;;5020718;28;21546;-78